Virtual Norwegian is not affiliated with Norwegian Air Shuttle in any way.
If you are looking for the real "Norwegian", or you wish to book Norwegian flights, please visit Norwegian.com


We use cookies to ensure you get the best experience on our website.   ACCEPT

EFHK - HEL - Helsinki (Helsinki Vantaa)

General Info Alternate Airport
ICAO: EFHK Elevation: 179 ft ICAO: EFTU
IATA: HEL Country: Finland IATA: TKU
City: Helsinki Charts: Log in to view charts City: Turku
Name: Helsinki Vantaa Hub: Yes Name Turku
General Info
ICAO: EFHK
IATA: HEL
City: Helsinki
Name: Helsinki Vantaa
Elevation: 179 ft
Country: Finland
Charts: Log in to view charts
Hub: Yes
 
Alternate Airport
ICAO: EFTU
IATA: TKU
City: Turku
Name: Turku

Weather
221750Z 25004KT CAVOK 00/M01 Q1015 NOSIG
Weather
221750Z 25004KT CAVOK 00/M01 Q1015 NOSIG

Runway Info
04L
Length ILS/LOC Course
3060 m 111.90 039
04R
Length ILS/LOC Course
3440 m 111.50 039
15
Length ILS/LOC Course
2901 m 109.10 145
22L
Length ILS/LOC Course
3440 m 110.30 219
22R
Length ILS/LOC Course
3060 m 110.70 219
33
Length ILS/LOC Heading
2901 m N/A 333

NOTAMs
NOTAMs currently unavailable.
NOTAMs
NOTAMs currently unavailable

Route map
Airport
Airport (hub)